createdAt,value
2017-12-01T00:02:15.646Z,1.03
2017-12-01T00:04:43.073Z,1.04
2017-12-01T00:07:10.529Z,0.96
2017-12-01T00:09:37.975Z,1.11
2017-12-01T00:12:05.445Z,1.09
2017-12-01T00:14:32.937Z,1.09
2017-12-01T00:17:00.489Z,1.09
2017-12-01T00:19:27.936Z,1.09
2017-12-01T00:21:55.415Z,1.15
2017-12-01T00:24:22.862Z,1.30
2017-12-01T00:26:50.378Z,1.20
2017-12-01T00:29:17.804Z,1.11
2017-12-01T00:31:45.271Z,1.00
2017-12-01T00:34:12.702Z,1.16
2017-12-01T00:36:40.138Z,0.99
2017-12-01T00:39:07.589Z,0.87
2017-12-01T00:41:35.030Z,0.80
2017-12-01T00:44:02.482Z,0.75
2017-12-01T00:46:30.781Z,0.76
2017-12-01T00:48:58.247Z,0.62
2017-12-01T00:51:25.671Z,0.49
2017-12-01T00:53:53.125Z,0.53
2017-12-01T00:56:20.549Z,0.74
2017-12-01T00:58:47.997Z,0.60
2017-12-01T01:01:15.441Z,0.69
2017-12-01T01:03:42.997Z,0.66
2017-12-01T01:06:10.441Z,0.64
2017-12-01T01:08:37.927Z,0.61
2017-12-01T01:11:05.376Z,0.53
2017-12-01T01:13:32.855Z,0.49
2017-12-01T01:16:00.305Z,0.49
2017-12-01T01:18:27.729Z,0.42
2017-12-01T01:20:55.286Z,0.52
2017-12-01T01:23:22.738Z,0.99
2017-12-01T01:25:50.221Z,0.85
2017-12-01T01:28:17.676Z,0.87
2017-12-01T01:30:45.173Z,0.90
2017-12-01T01:33:12.608Z,0.79
2017-12-01T01:35:40.071Z,0.48
2017-12-01T01:38:07.515Z,0.44
2017-12-01T01:40:35.001Z,0.35
2017-12-01T01:43:02.433Z,0.35
2017-12-01T01:45:29.886Z,0.41
2017-12-01T01:47:57.322Z,0.49
2017-12-01T01:50:24.838Z,0.35
2017-12-01T01:52:52.287Z,0.33
2017-12-01T01:55:19.748Z,0.20
2017-12-01T01:57:47.276Z,0.16
2017-12-01T02:00:14.818Z,0.15
2017-12-01T02:02:42.275Z,0.16
2017-12-01T02:05:09.729Z,0.15
2017-12-01T02:07:37.299Z,0.19
2017-12-01T02:10:04.747Z,0.06
2017-12-01T02:12:32.204Z,0.07
2017-12-01T02:14:59.640Z,0.19
2017-12-01T02:17:27.094Z,0.00
2017-12-01T02:19:54.539Z,0.16
2017-12-01T02:22:22.078Z,0.12
2017-12-01T02:24:49.542Z,0.10
2017-12-01T02:27:17.056Z,0.03
2017-12-01T02:29:44.664Z,-0.12
2017-12-01T02:32:12.105Z,-0.04
2017-12-01T02:34:39.634Z,0.10
2017-12-01T02:37:07.161Z,0.02
2017-12-01T02:39:34.653Z,0.02
2017-12-01T02:42:02.118Z,0.17
2017-12-01T02:44:29.625Z,0.21
2017-12-01T02:46:57.088Z,0.04
2017-12-01T02:49:24.656Z,-0.12
2017-12-01T02:51:52.104Z,-0.22
2017-12-01T02:54:19.580Z,-0.17
2017-12-01T02:56:47.133Z,-0.29
2017-12-01T02:59:14.655Z,-0.40
2017-12-01T03:01:42.145Z,-0.35
2017-12-01T03:04:09.628Z,-0.41
2017-12-01T03:06:37.102Z,-0.37
2017-12-01T03:09:04.588Z,-0.46
2017-12-01T03:11:32.035Z,-0.68
2017-12-01T03:13:59.524Z,-0.60
2017-12-01T03:16:27.087Z,-0.69
2017-12-01T03:18:54.594Z,-0.74
2017-12-01T03:21:22.036Z,-0.77
2017-12-01T03:23:49.484Z,-0.70
2017-12-01T03:26:16.964Z,-0.54
2017-12-01T03:28:44.419Z,-0.44
2017-12-01T03:31:11.884Z,-0.32
2017-12-01T03:33:39.383Z,-0.27
2017-12-01T03:36:06.850Z,-0.48
2017-12-01T03:38:34.311Z,-0.62
2017-12-01T03:41:01.797Z,-0.59
2017-12-01T03:43:29.303Z,-0.60
2017-12-01T03:45:56.785Z,-0.44
2017-12-01T03:48:24.248Z,-0.34
2017-12-01T03:50:51.775Z,-0.41
2017-12-01T03:53:19.236Z,-0.45
2017-12-01T03:55:46.791Z,-0.56
2017-12-01T03:58:14.271Z,-0.38
2017-12-01T04:00:41.763Z,-0.32
2017-12-01T04:03:09.216Z,-0.31
2017-12-01T04:05:36.664Z,-0.20
2017-12-01T04:08:04.131Z,-0.23
2017-12-01T04:10:31.636Z,-0.13
2017-12-01T04:12:59.106Z,-0.34
2017-12-01T04:15:26.561Z,-0.48
2017-12-01T04:17:54.108Z,-0.50
2017-12-01T04:20:21.668Z,-0.28
2017-12-01T04:22:49.136Z,-0.30
2017-12-01T04:25:16.575Z,-0.10
2017-12-01T04:27:44.039Z,-0.08
2017-12-01T04:30:11.503Z,0.08
2017-12-01T04:32:38.970Z,0.09
2017-12-01T04:35:06.429Z,-0.01
2017-12-01T04:37:33.964Z,-0.02
2017-12-01T04:40:01.437Z,-0.13
2017-12-01T04:42:28.947Z,-0.26
2017-12-01T04:44:56.477Z,-0.20
2017-12-01T04:47:23.924Z,-0.11
2017-12-01T04:49:51.417Z,-0.11
2017-12-01T04:52:19.030Z,-0.06
2017-12-01T04:54:46.500Z,0.02
2017-12-01T04:57:13.960Z,0.06
2017-12-01T04:59:41.474Z,0.13
2017-12-01T05:02:08.923Z,0.17
2017-12-01T05:04:36.497Z,0.20
2017-12-01T05:07:03.979Z,0.23
2017-12-01T05:09:31.508Z,0.18
2017-12-01T05:11:58.988Z,0.21
2017-12-01T05:14:26.455Z,0.14
2017-12-01T05:16:53.903Z,0.02
2017-12-01T05:19:21.391Z,0.03
2017-12-01T05:21:48.852Z,-0.06
2017-12-01T05:24:16.333Z,-0.02
2017-12-01T05:26:43.806Z,-0.03
2017-12-01T05:29:11.277Z,0.05
2017-12-01T05:31:38.828Z,0.01
2017-12-01T05:34:06.387Z,0.00
2017-12-01T05:36:33.953Z,-0.03
2017-12-01T05:39:01.432Z,-0.19
2017-12-01T05:41:28.917Z,-0.16
2017-12-01T05:43:56.367Z,0.14
2017-12-01T05:46:23.879Z,0.28
2017-12-01T05:48:51.438Z,0.31
2017-12-01T05:51:18.921Z,0.24
2017-12-01T05:53:46.392Z,0.02
2017-12-01T05:56:13.860Z,0.04
2017-12-01T05:58:41.312Z,0.21
2017-12-01T06:01:08.764Z,0.34
2017-12-01T06:03:36.324Z,0.27
2017-12-01T06:06:03.776Z,0.31
2017-12-01T06:08:31.251Z,0.34
2017-12-01T06:10:58.702Z,0.34
2017-12-01T06:13:26.192Z,0.39
2017-12-01T06:15:53.766Z,0.34
2017-12-01T06:18:21.249Z,0.32
2017-12-01T06:20:49.278Z,0.36
2017-12-01T06:23:16.846Z,0.31
2017-12-01T06:25:44.328Z,0.39
2017-12-01T06:28:11.816Z,0.47
2017-12-01T06:30:39.266Z,0.57
2017-12-01T06:33:06.738Z,0.43
2017-12-01T06:35:34.205Z,0.45
2017-12-01T06:38:01.670Z,0.52
2017-12-01T06:40:29.176Z,0.44
2017-12-01T06:42:56.680Z,0.52
2017-12-01T06:45:24.163Z,0.56
2017-12-01T06:47:51.727Z,0.59
2017-12-01T06:50:19.200Z,0.52
2017-12-01T06:52:46.695Z,0.68
2017-12-01T06:55:14.189Z,0.71
2017-12-01T06:57:41.643Z,0.72
2017-12-01T07:00:09.118Z,0.72
2017-12-01T07:02:36.673Z,0.82
2017-12-01T07:05:04.171Z,0.88
2017-12-01T07:07:31.689Z,0.83
2017-12-01T07:09:59.184Z,0.93
2017-12-01T07:12:26.655Z,0.95
2017-12-01T07:14:54.108Z,1.06
2017-12-01T07:17:21.708Z,0.98
2017-12-01T07:19:49.164Z,1.02
2017-12-01T07:22:16.647Z,1.11
2017-12-01T07:24:44.107Z,1.21
2017-12-01T07:27:11.596Z,1.13
2017-12-01T07:29:39.077Z,1.03
2017-12-01T07:32:06.660Z,0.98
2017-12-01T07:34:34.212Z,0.95
2017-12-01T07:37:01.699Z,0.95
2017-12-01T07:39:29.156Z,0.88
2017-12-01T07:41:56.616Z,0.76
2017-12-01T07:44:41.796Z,0.78
2017-12-01T07:47:09.267Z,0.76
2017-12-01T07:49:36.732Z,0.65
2017-12-01T07:52:04.185Z,0.55
2017-12-01T07:54:31.660Z,0.60
2017-12-01T07:56:59.115Z,0.86
2017-12-01T07:59:26.598Z,0.94
2017-12-01T08:01:54.047Z,0.75
2017-12-01T08:04:21.555Z,0.71
2017-12-01T08:06:49.022Z,0.73
2017-12-01T08:09:16.504Z,0.70
2017-12-01T08:11:43.961Z,0.61
2017-12-01T08:14:11.444Z,0.59
2017-12-01T08:16:50.652Z,0.50
2017-12-01T08:19:20.974Z,0.55
2017-12-01T08:22:00.199Z,0.60
2017-12-01T08:24:39.287Z,0.61
2017-12-01T08:27:06.736Z,0.67
2017-12-01T08:29:34.217Z,0.73
2017-12-01T08:32:01.686Z,0.45
2017-12-01T08:34:29.177Z,0.54
2017-12-01T08:36:56.735Z,0.54
2017-12-01T08:39:24.188Z,0.55
2017-12-01T08:41:51.665Z,0.66
2017-12-01T08:44:19.210Z,0.74
2017-12-01T08:46:46.697Z,0.77
2017-12-01T08:49:14.147Z,0.86
2017-12-01T08:51:41.633Z,0.92
2017-12-01T08:54:09.097Z,0.98
2017-12-01T08:56:36.570Z,0.97
2017-12-01T08:59:04.061Z,0.96
2017-12-01T09:01:31.535Z,0.99
2017-12-01T09:03:59.079Z,1.16
2017-12-01T09:06:26.560Z,1.23
2017-12-01T09:08:54.010Z,1.29
2017-12-01T09:11:21.547Z,1.38
2017-12-01T09:13:49.021Z,1.40
2017-12-01T09:16:16.489Z,1.47
2017-12-01T09:18:43.977Z,1.48
2017-12-01T09:21:11.439Z,1.48
2017-12-01T09:23:38.921Z,1.62
2017-12-01T09:26:06.367Z,1.71
2017-12-01T09:28:33.863Z,1.92
2017-12-01T09:31:01.322Z,2.03
2017-12-01T09:33:28.833Z,2.08
2017-12-01T09:35:56.291Z,2.08
2017-12-01T09:38:23.786Z,2.11
2017-12-01T09:40:51.248Z,2.19
2017-12-01T09:43:18.737Z,2.40
2017-12-01T09:45:46.191Z,2.54
2017-12-01T09:48:13.729Z,2.59
2017-12-01T09:50:41.231Z,2.56
2017-12-01T09:53:08.711Z,2.48
2017-12-01T09:55:36.171Z,2.62
2017-12-01T09:58:03.642Z,2.62
2017-12-01T10:00:31.129Z,2.71
2017-12-01T10:02:58.584Z,2.66
2017-12-01T10:05:26.051Z,2.58
2017-12-01T10:07:53.503Z,2.65
2017-12-01T10:10:21.009Z,2.76
2017-12-01T10:12:48.469Z,2.80
2017-12-01T10:15:15.971Z,2.79
2017-12-01T10:17:43.449Z,2.86
2017-12-01T10:20:10.935Z,2.86
2017-12-01T10:22:38.388Z,2.74
2017-12-01T10:25:05.866Z,2.77
2017-12-01T10:27:33.318Z,2.78
2017-12-01T10:30:00.820Z,2.77
2017-12-01T10:32:28.275Z,2.75
2017-12-01T10:34:55.723Z,2.85
2017-12-01T10:37:23.191Z,3.24
2017-12-01T10:39:50.644Z,3.41
2017-12-01T10:42:18.120Z,3.21
2017-12-01T10:44:45.603Z,3.47
2017-12-01T10:47:13.093Z,3.58
2017-12-01T10:49:40.615Z,3.54
2017-12-01T10:52:08.087Z,3.36
2017-12-01T10:54:35.632Z,3.68
2017-12-01T10:57:03.095Z,3.46
2017-12-01T10:59:30.543Z,3.34
2017-12-01T11:01:58.101Z,3.70
2017-12-01T11:04:25.584Z,3.70
2017-12-01T11:06:53.066Z,3.68
2017-12-01T11:09:20.535Z,3.55
2017-12-01T11:11:48.011Z,3.59
2017-12-01T11:14:15.588Z,3.39
2017-12-01T11:16:43.151Z,3.61
2017-12-01T11:19:10.718Z,3.20
2017-12-01T11:21:38.183Z,3.64
2017-12-01T11:24:05.650Z,3.46
2017-12-01T11:26:33.177Z,3.45
2017-12-01T11:29:00.637Z,3.20
2017-12-01T11:31:28.107Z,3.28
2017-12-01T11:33:55.547Z,3.50
2017-12-01T11:36:23.023Z,3.80
2017-12-01T11:38:50.482Z,3.63
2017-12-01T11:41:17.937Z,3.40
2017-12-01T11:43:45.455Z,3.54
2017-12-01T11:46:12.911Z,3.24
2017-12-01T11:48:40.383Z,3.17
2017-12-01T11:51:07.857Z,3.19
2017-12-01T11:53:35.327Z,3.24
2017-12-01T11:56:02.859Z,3.23
2017-12-01T11:58:30.332Z,3.15
2017-12-01T12:00:58.558Z,3.12
2017-12-01T12:03:26.052Z,3.23
2017-12-01T12:05:53.520Z,3.19
2017-12-01T12:08:20.987Z,3.15
2017-12-01T12:10:48.460Z,3.19
2017-12-01T12:13:15.895Z,3.00
2017-12-01T12:15:43.379Z,3.20
2017-12-01T12:18:10.842Z,3.12
2017-12-01T12:20:38.320Z,3.44
2017-12-01T12:23:05.783Z,3.45
2017-12-01T12:25:33.247Z,3.62
2017-12-01T12:28:00.699Z,3.59
2017-12-01T12:30:28.269Z,3.65
2017-12-01T12:32:55.719Z,3.69
2017-12-01T12:35:23.205Z,4.02
2017-12-01T12:37:50.679Z,3.89
2017-12-01T12:40:18.165Z,3.77
2017-12-01T12:42:45.660Z,3.70
2017-12-01T12:45:13.162Z,3.92
2017-12-01T12:47:40.864Z,3.99
2017-12-01T12:50:08.321Z,3.92
2017-12-01T12:52:35.792Z,4.00
2017-12-01T12:55:03.248Z,3.93
2017-12-01T12:57:30.750Z,4.11
2017-12-01T12:59:58.232Z,4.09
2017-12-01T13:02:25.740Z,4.00
2017-12-01T13:04:53.208Z,4.00
2017-12-01T13:07:20.689Z,3.80
2017-12-01T13:09:48.157Z,3.69
2017-12-01T13:12:15.650Z,3.74
2017-12-01T13:14:43.132Z,3.85
2017-12-01T13:17:10.621Z,4.01
2017-12-01T13:19:38.080Z,3.79
2017-12-01T13:22:05.608Z,3.79
2017-12-01T13:24:33.198Z,3.75
2017-12-01T13:27:00.661Z,3.49
2017-12-01T13:29:28.135Z,3.48
2017-12-01T13:31:58.581Z,3.42
2017-12-01T13:34:26.052Z,3.53
2017-12-01T13:36:53.592Z,3.50
2017-12-01T13:39:21.060Z,3.44
2017-12-01T13:41:48.515Z,3.30
2017-12-01T13:44:16.068Z,3.41
2017-12-01T13:46:43.520Z,3.50
2017-12-01T13:49:10.995Z,3.56
2017-12-01T13:51:38.511Z,3.40
2017-12-01T13:54:06.002Z,3.58
2017-12-01T13:56:33.468Z,3.70
2017-12-01T13:59:00.975Z,3.80
2017-12-01T14:01:28.435Z,3.63
2017-12-01T14:03:55.926Z,3.69
2017-12-01T14:06:23.474Z,3.66
2017-12-01T14:08:50.928Z,3.77
2017-12-01T14:11:18.394Z,3.71
2017-12-01T14:13:45.847Z,4.05
2017-12-01T14:16:13.410Z,4.05
2017-12-01T14:18:40.864Z,3.94
2017-12-01T14:21:08.342Z,4.28
2017-12-01T14:23:35.903Z,3.95
2017-12-01T14:26:03.384Z,3.82
2017-12-01T14:28:30.842Z,3.83
2017-12-01T14:30:58.312Z,4.07
2017-12-01T14:33:25.809Z,4.29
2017-12-01T14:35:53.281Z,4.35
2017-12-01T14:38:20.768Z,4.30
2017-12-01T14:40:48.230Z,4.03
2017-12-01T14:43:15.719Z,4.19
2017-12-01T14:45:43.167Z,4.13
2017-12-01T14:48:10.675Z,3.97
2017-12-01T14:50:38.202Z,4.11
2017-12-01T14:53:05.675Z,4.05
2017-12-01T14:55:33.255Z,4.03
2017-12-01T14:58:00.711Z,3.93
2017-12-01T15:00:28.152Z,3.71
2017-12-01T15:02:55.710Z,3.59
2017-12-01T15:05:23.156Z,3.60
2017-12-01T15:07:50.676Z,3.41
2017-12-01T15:10:18.178Z,3.45
2017-12-01T15:12:45.639Z,3.37
2017-12-01T15:15:13.108Z,3.35
2017-12-01T15:17:40.555Z,3.28
2017-12-01T15:20:08.024Z,3.28
2017-12-01T15:22:35.485Z,3.35
2017-12-01T15:25:02.959Z,3.43
2017-12-01T15:27:30.409Z,3.33
2017-12-01T15:29:57.887Z,3.42
2017-12-01T15:32:25.348Z,3.46
2017-12-01T15:34:52.816Z,3.62
2017-12-01T15:37:20.256Z,3.37
2017-12-01T15:39:47.759Z,3.21
2017-12-01T15:42:15.215Z,3.10
2017-12-01T15:44:42.698Z,3.12
2017-12-01T15:47:10.155Z,2.98
2017-12-01T15:49:37.627Z,3.12
2017-12-01T15:52:05.083Z,3.00
2017-12-01T15:54:32.624Z,2.75
2017-12-01T15:57:00.075Z,2.66
2017-12-01T15:59:27.608Z,2.77
2017-12-01T16:01:55.152Z,2.61
2017-12-01T16:04:22.600Z,2.60
2017-12-01T16:06:50.081Z,2.49
2017-12-01T16:09:17.571Z,2.46
2017-12-01T16:11:45.040Z,2.41
2017-12-01T16:14:12.500Z,2.41
2017-12-01T16:16:39.989Z,2.39
2017-12-01T16:19:07.439Z,2.31
2017-12-01T16:21:34.904Z,2.49
2017-12-01T16:24:02.351Z,2.59
2017-12-01T16:26:29.819Z,2.49
2017-12-01T16:28:57.271Z,2.66
2017-12-01T16:31:24.737Z,2.67
2017-12-01T16:33:52.211Z,2.76
2017-12-01T16:36:19.772Z,2.80
2017-12-01T16:38:47.312Z,2.43
2017-12-01T16:41:14.783Z,2.48
2017-12-01T16:43:42.241Z,2.35
2017-12-01T16:46:09.720Z,2.41
2017-12-01T16:48:37.193Z,2.51
2017-12-01T16:51:04.653Z,2.38
2017-12-01T16:53:32.120Z,2.19
2017-12-01T16:55:59.570Z,2.45
2017-12-01T16:58:27.048Z,2.53
2017-12-01T17:00:54.512Z,2.40
2017-12-01T17:03:21.996Z,2.43
2017-12-01T17:05:49.446Z,2.49
2017-12-01T17:08:16.919Z,2.60
2017-12-01T17:10:44.370Z,2.53
2017-12-01T17:13:11.840Z,2.61
2017-12-01T17:15:39.312Z,2.58
2017-12-01T17:18:06.793Z,2.70
2017-12-01T17:20:34.249Z,2.75
2017-12-01T17:23:01.724Z,2.58
2017-12-01T17:25:29.176Z,2.48
2017-12-01T17:27:56.649Z,2.56
2017-12-01T17:30:24.103Z,2.50
2017-12-01T17:32:51.552Z,2.08
2017-12-01T17:35:19.019Z,2.08
2017-12-01T17:37:46.459Z,2.04
2017-12-01T17:40:13.936Z,2.03
2017-12-01T17:42:41.398Z,1.95
2017-12-01T17:45:08.859Z,1.95
2017-12-01T17:47:36.420Z,1.96
2017-12-01T17:50:03.895Z,2.00
2017-12-01T17:52:31.419Z,2.04
2017-12-01T17:54:58.887Z,2.05
2017-12-01T17:57:26.479Z,2.01
2017-12-01T17:59:53.918Z,1.99
2017-12-01T18:02:21.390Z,1.92
2017-12-01T18:04:48.944Z,1.98
2017-12-01T18:07:16.414Z,2.00
2017-12-01T18:09:43.859Z,2.08
2017-12-01T18:12:11.380Z,1.93
2017-12-01T18:14:38.853Z,1.95
2017-12-01T18:17:06.334Z,1.95
2017-12-01T18:19:33.855Z,1.87
2017-12-01T18:22:01.343Z,1.82
2017-12-01T18:24:28.810Z,1.72
2017-12-01T18:26:56.280Z,1.75
2017-12-01T18:29:23.731Z,1.69
2017-12-01T18:31:51.236Z,1.64
2017-12-01T18:34:18.699Z,1.66
2017-12-01T18:36:46.207Z,1.91
2017-12-01T18:39:13.660Z,1.93
2017-12-01T18:41:41.108Z,2.04
2017-12-01T18:44:08.588Z,2.05
2017-12-01T18:46:36.089Z,2.02
2017-12-01T18:49:03.559Z,2.03
2017-12-01T18:51:31.042Z,2.08
2017-12-01T18:53:58.518Z,2.02
2017-12-01T18:56:26.082Z,1.92
2017-12-01T18:58:53.576Z,1.85
2017-12-01T19:01:21.023Z,1.90
2017-12-01T19:03:48.583Z,1.94
2017-12-01T19:06:16.038Z,1.88
2017-12-01T19:08:43.595Z,1.83
2017-12-01T19:11:11.155Z,1.71
2017-12-01T19:13:38.703Z,1.69
2017-12-01T19:16:06.128Z,1.66
2017-12-01T19:18:33.625Z,1.73
2017-12-01T19:21:01.067Z,1.83
2017-12-01T19:23:28.539Z,1.85
2017-12-01T19:25:55.983Z,1.83
2017-12-01T19:28:23.430Z,1.79
2017-12-01T19:30:50.902Z,2.31
2017-12-01T19:33:18.385Z,2.43
2017-12-01T19:35:45.851Z,2.37
2017-12-01T19:38:13.291Z,2.03
2017-12-01T19:40:40.803Z,2.08
2017-12-01T19:43:08.257Z,2.00
2017-12-01T19:45:35.715Z,1.81
2017-12-01T19:48:03.164Z,1.81
2017-12-01T19:50:30.667Z,1.89
2017-12-01T19:52:58.223Z,1.80
2017-12-01T19:55:25.706Z,1.78
2017-12-01T19:57:53.235Z,1.56
2017-12-01T20:00:20.812Z,1.60
2017-12-01T20:02:48.277Z,1.38
2017-12-01T20:05:15.742Z,1.21
2017-12-01T20:07:43.276Z,1.06
2017-12-01T20:10:10.723Z,1.13
2017-12-01T20:12:38.191Z,1.25
2017-12-01T20:15:05.646Z,0.77
2017-12-01T20:17:33.123Z,0.93
2017-12-01T20:20:00.587Z,0.88
2017-12-01T20:22:28.058Z,0.89
2017-12-01T20:24:55.530Z,0.75
2017-12-01T20:27:23.032Z,0.76
2017-12-01T20:29:50.478Z,0.82
2017-12-01T20:32:17.972Z,0.80
2017-12-01T20:34:45.490Z,0.84
2017-12-01T20:37:13.051Z,1.25
2017-12-01T20:39:40.612Z,1.20
2017-12-01T20:42:08.073Z,1.08
2017-12-01T20:44:35.574Z,1.07
2017-12-01T20:47:03.061Z,1.14
2017-12-01T20:49:30.536Z,1.13
2017-12-01T20:51:57.985Z,1.04
2017-12-01T20:54:25.475Z,1.17
2017-12-01T20:56:52.939Z,1.39
2017-12-01T20:59:20.468Z,1.45
2017-12-01T21:01:47.935Z,1.37
2017-12-01T21:04:15.437Z,1.52
2017-12-01T21:06:42.895Z,1.56
2017-12-01T21:09:10.417Z,1.75
2017-12-01T21:11:37.964Z,1.58
2017-12-01T21:14:05.455Z,1.52
2017-12-01T21:16:32.912Z,1.59
2017-12-01T21:19:00.385Z,1.68
2017-12-01T21:21:27.856Z,1.45
2017-12-01T21:23:55.319Z,1.70
2017-12-01T21:26:22.806Z,1.75
2017-12-01T21:28:50.354Z,1.86
2017-12-01T21:31:17.875Z,1.79
2017-12-01T21:33:45.364Z,1.66
2017-12-01T21:36:12.930Z,1.63
2017-12-01T21:38:40.383Z,1.82
2017-12-01T21:41:07.863Z,1.78
2017-12-01T21:43:35.332Z,1.67
2017-12-01T21:46:02.820Z,1.61
2017-12-01T21:48:30.280Z,1.65
2017-12-01T21:50:57.732Z,1.59
2017-12-01T21:53:25.203Z,1.66
2017-12-01T21:55:52.655Z,1.55
2017-12-01T21:58:20.122Z,1.61
2017-12-01T22:00:47.575Z,1.56
2017-12-01T22:03:15.050Z,1.60
2017-12-01T22:05:42.496Z,1.60
2017-12-01T22:08:09.995Z,1.56
2017-12-01T22:10:37.456Z,1.74
2017-12-01T22:13:04.931Z,1.55
2017-12-01T22:15:32.386Z,1.78
2017-12-01T22:17:59.855Z,1.61
2017-12-01T22:20:27.332Z,1.72
2017-12-01T22:22:54.807Z,1.68
2017-12-01T22:25:22.358Z,1.79
2017-12-01T22:27:49.857Z,1.62
2017-12-01T22:30:17.304Z,1.54
2017-12-01T22:32:44.775Z,1.47
2017-12-01T22:35:12.266Z,1.67
2017-12-01T22:37:39.706Z,1.87
2017-12-01T22:40:07.181Z,2.11
2017-12-01T22:42:34.688Z,2.07
2017-12-01T22:45:02.171Z,2.23
2017-12-01T22:47:29.625Z,1.99
2017-12-01T22:49:57.109Z,1.65
2017-12-01T22:52:24.564Z,1.50
2017-12-01T22:54:52.033Z,1.41
2017-12-01T22:57:19.505Z,1.47
2017-12-01T22:59:46.991Z,1.40
2017-12-01T23:02:14.453Z,1.41
2017-12-01T23:04:41.923Z,1.82
2017-12-01T23:07:09.387Z,1.41
2017-12-01T23:09:36.903Z,1.22
2017-12-01T23:12:04.380Z,1.06
2017-12-01T23:14:31.901Z,0.86
2017-12-01T23:16:59.375Z,0.71
2017-12-01T23:19:26.823Z,0.64
2017-12-01T23:21:54.324Z,0.41
2017-12-01T23:24:21.832Z,0.46
2017-12-01T23:26:49.403Z,0.60
2017-12-01T23:29:16.866Z,0.42
2017-12-01T23:31:44.423Z,0.46
2017-12-01T23:34:12.490Z,0.55
2017-12-01T23:36:40.036Z,0.26
2017-12-01T23:39:07.501Z,0.23
2017-12-01T23:41:35.060Z,0.40
2017-12-01T23:44:02.517Z,0.09
2017-12-01T23:46:29.995Z,-0.01
2017-12-01T23:48:57.474Z,-0.20
2017-12-01T23:51:24.932Z,-0.17
2017-12-01T23:53:52.435Z,-0.33
2017-12-01T23:56:19.885Z,-0.58
2017-12-01T23:58:47.354Z,-0.59
